Time;durP1;ratioP1;P1;durP2;ratioP2;P2;SDS_P1;SDS_P2;PMS_P1;PMS_P2;Temp;Humidity;BMP_temperature;BMP_pressure;BME280_temperature;BME280_humidity;BME280_pressure;Samples;Min_cycle;Max_cycle;Signal;HPM_P1;HPM_P2
2024/02/10 00:00:21;;;;;;;7.07;2.63;;;11.50;99.90;;;;;;5026480;28;20730;-86
2024/02/10 00:02:48;;;;;;;7.30;2.38;;;11.50;99.90;;;;;;5014918;28;20041;-84
2024/02/10 00:05:15;;;;;;;8.05;2.40;;;11.50;99.90;;;;;;5016670;28;20021;-85
2024/02/10 00:07:42;;;;;;;6.10;1.83;;;11.50;99.90;;;;;;5015293;28;20470;-86
2024/02/10 00:10:10;;;;;;;4.60;1.80;;;11.50;99.90;;;;;;5014786;28;20394;-85
2024/02/10 00:12:37;;;;;;;5.68;2.22;;;11.50;99.90;;;;;;5016242;28;20037;-86
2024/02/10 00:15:05;;;;;;;4.70;2.00;;;11.50;99.90;;;;;;5019232;28;20029;-83
2024/02/10 00:17:31;;;;;;;6.60;1.80;;;11.50;99.90;;;;;;5028948;28;20029;-85
2024/02/10 00:19:56;;;;;;;8.93;2.42;;;11.50;99.90;;;;;;5016095;28;20384;-86
2024/02/10 00:22:22;;;;;;;8.48;1.92;;;11.50;99.90;;;;;;5014917;28;20033;-87
2024/02/10 00:24:48;;;;;;;8.38;2.58;;;11.60;99.90;;;;;;5014687;28;20021;-86
2024/02/10 00:27:16;;;;;;;7.43;2.35;;;11.60;99.90;;;;;;5016427;28;20033;-87
2024/02/10 00:29:43;;;;;;;4.90;2.08;;;11.60;99.90;;;;;;5016601;28;20174;-86
2024/02/10 00:32:10;;;;;;;5.30;2.22;;;11.60;99.90;;;;;;5015378;28;20018;-87
2024/02/10 00:34:39;;;;;;;6.25;2.25;;;11.60;99.90;;;;;;5016544;28;20014;-86
2024/02/10 00:37:08;;;;;;;10.02;2.17;;;11.60;99.90;;;;;;5015004;28;20033;-86
2024/02/10 00:39:34;;;;;;;5.68;1.63;;;11.60;99.90;;;;;;5014469;28;20430;-86
2024/02/10 00:42:00;;;;;;;4.30;1.70;;;11.60;99.90;;;;;;5014696;28;20026;-86
2024/02/10 00:44:28;;;;;;;8.27;2.10;;;11.60;99.90;;;;;;5015539;28;20036;-86
2024/02/10 00:46:57;;;;;;;5.72;2.72;;;11.50;99.90;;;;;;5015101;28;20096;-86
2024/02/10 00:49:26;;;;;;;7.20;2.13;;;11.50;99.90;;;;;;5015075;28;20478;-86
2024/02/10 00:51:54;;;;;;;5.10;1.90;;;11.60;99.90;;;;;;5015518;28;20018;-86
2024/02/10 00:54:26;;;;;;;5.93;2.08;;;11.60;99.90;;;;;;5015946;28;20044;-86
2024/02/10 00:56:53;;;;;;;4.97;2.00;;;11.60;99.90;;;;;;5015472;28;20100;-86
2024/02/10 00:59:21;;;;;;;6.10;1.67;;;11.60;99.90;;;;;;5015376;28;20042;-86
2024/02/10 01:01:51;;;;;;;5.03;1.83;;;11.60;99.90;;;;;;5014737;28;20092;-86
2024/02/10 01:04:19;;;;;;;8.05;1.83;;;11.60;99.90;;;;;;5013915;28;20046;-86
2024/02/10 01:06:47;;;;;;;6.20;1.83;;;11.60;99.90;;;;;;5013943;28;20014;-86
2024/02/10 01:09:14;;;;;;;3.92;1.60;;;11.60;99.90;;;;;;5014052;28;20025;-85
2024/02/10 01:11:42;;;;;;;3.90;1.50;;;11.60;99.90;;;;;;5015361;28;20064;-87
2024/02/10 01:14:12;;;;;;;4.68;2.00;;;11.60;99.90;;;;;;5014910;28;20360;-86
2024/02/10 01:16:41;;;;;;;6.57;1.60;;;11.60;99.90;;;;;;5015111;28;20030;-86
2024/02/10 01:19:07;;;;;;;6.97;2.15;;;11.60;99.90;;;;;;5014921;28;20105;-86
2024/02/10 01:21:33;;;;;;;6.35;2.15;;;11.70;99.90;;;;;;5015189;28;20065;-87
2024/02/10 01:24:00;;;;;;;5.15;1.65;;;11.60;99.90;;;;;;5014739;28;20088;-86
2024/02/10 01:26:27;;;;;;;4.18;1.60;;;11.60;99.90;;;;;;5014655;28;20018;-85
2024/02/10 01:28:53;;;;;;;7.00;1.90;;;11.60;99.90;;;;;;5013691;28;20358;-86
2024/02/10 01:31:21;;;;;;;5.80;1.50;;;11.60;99.90;;;;;;5014370;28;20026;-84
2024/02/10 01:33:48;;;;;;;7.25;1.85;;;11.60;99.90;;;;;;5015293;28;20026;-86
2024/02/10 01:36:14;;;;;;;5.50;1.92;;;11.60;99.90;;;;;;5014642;28;20018;-87
2024/02/10 01:38:44;;;;;;;7.57;1.83;;;11.60;99.90;;;;;;5015212;28;20030;-86
2024/02/10 01:41:11;;;;;;;4.43;1.58;;;11.50;99.90;;;;;;5025228;28;20025;-86
2024/02/10 01:43:41;;;;;;;4.25;1.95;;;11.50;99.90;;;;;;5026816;28;20026;-86
2024/02/10 01:46:11;;;;;;;7.25;1.73;;;11.50;99.90;;;;;;5023019;28;20093;-86
2024/02/10 01:48:37;;;;;;;5.72;1.80;;;11.50;99.90;;;;;;5016812;28;20022;-86
2024/02/10 01:51:03;;;;;;;4.95;1.90;;;11.50;99.90;;;;;;5016147;28;20030;-85
2024/02/10 01:53:30;;;;;;;5.88;1.98;;;11.50;99.90;;;;;;5013907;28;20037;-86
2024/02/10 01:55:56;;;;;;;3.60;1.85;;;11.50;99.90;;;;;;5014368;28;20017;-86
2024/02/10 01:58:23;;;;;;;6.53;2.30;;;11.40;99.90;;;;;;5013390;28;20021;-86
2024/02/10 02:00:49;;;;;;;6.35;2.22;;;11.40;99.90;;;;;;5014499;28;20085;-86
2024/02/10 02:03:15;;;;;;;4.10;1.65;;;11.40;99.90;;;;;;5013601;28;20038;-86
2024/02/10 02:05:42;;;;;;;5.07;1.70;;;11.40;99.90;;;;;;5015213;28;20040;-87
2024/02/10 02:08:08;;;;;;;5.00;2.30;;;11.40;99.90;;;;;;5014629;28;20038;-87
2024/02/10 02:10:34;;;;;;;5.28;1.98;;;11.40;99.90;;;;;;5013060;28;20493;-87
2024/02/10 02:13:00;;;;;;;5.25;1.77;;;11.40;99.90;;;;;;5014333;28;20034;-86
2024/02/10 02:15:30;;;;;;;3.97;1.90;;;11.40;99.90;;;;;;5014230;28;20029;-85
2024/02/10 02:17:57;;;;;;;6.07;2.10;;;11.40;99.90;;;;;;5013171;28;20482;-87
2024/02/10 02:20:24;;;;;;;5.00;1.90;;;11.40;99.90;;;;;;5014092;28;20033;-86
2024/02/10 02:22:53;;;;;;;5.47;1.77;;;11.40;99.90;;;;;;5013695;28;20029;-86
2024/02/10 02:25:20;;;;;;;6.18;1.92;;;11.40;99.90;;;;;;5014457;28;20026;-85
2024/02/10 02:27:45;;;;;;;3.60;1.63;;;11.40;99.90;;;;;;5012928;28;20014;-86
2024/02/10 02:30:12;;;;;;;7.72;2.22;;;11.40;99.90;;;;;;5013043;28;20018;-87
2024/02/10 02:32:37;;;;;;;7.35;1.98;;;11.40;99.90;;;;;;5012707;28;20105;-86
2024/02/10 02:35:09;;;;;;;5.50;2.00;;;11.40;99.90;;;;;;5014240;28;20050;-86
2024/02/10 02:37:42;;;;;;;4.47;1.92;;;11.40;99.90;;;;;;5013323;28;20022;-86
2024/02/10 02:40:09;;;;;;;5.45;2.08;;;11.40;99.90;;;;;;5013485;28;20038;-86
2024/02/10 02:42:35;;;;;;;6.68;1.90;;;11.40;99.90;;;;;;5012954;28;20033;-86
2024/02/10 02:45:07;;;;;;;6.07;2.83;;;11.40;99.90;;;;;;5012857;28;20025;-86
2024/02/10 02:47:36;;;;;;;4.90;1.95;;;11.40;99.90;;;;;;5013681;28;20026;-86
2024/02/10 02:50:08;;;;;;;4.78;1.80;;;11.50;99.90;;;;;;5013755;28;20109;-86
2024/02/10 02:52:35;;;;;;;4.00;1.70;;;11.40;99.90;;;;;;5013265;28;20116;-86
2024/02/10 02:55:01;;;;;;;5.50;2.08;;;11.40;99.90;;;;;;5014200;28;20029;-86
2024/02/10 02:57:28;;;;;;;5.45;2.13;;;11.40;99.90;;;;;;5013873;28;20022;-86
2024/02/10 02:59:54;;;;;;;4.75;2.20;;;11.40;99.90;;;;;;5015121;28;20077;-87
2024/02/10 03:02:20;;;;;;;6.05;2.40;;;11.40;99.90;;;;;;5017398;28;20073;-86
2024/02/10 03:04:46;;;;;;;4.13;2.08;;;11.40;99.90;;;;;;5018145;28;20022;-86
2024/02/10 03:07:18;;;;;;;5.30;2.25;;;11.40;99.90;;;;;;5016686;28;20089;-87
2024/02/10 03:09:48;;;;;;;6.47;2.10;;;11.30;99.90;;;;;;5018189;28;20026;-87
2024/02/10 03:12:14;;;;;;;5.25;2.15;;;11.40;99.90;;;;;;5017782;28;20025;-86
2024/02/10 03:14:41;;;;;;;5.25;2.30;;;11.30;99.90;;;;;;5016527;28;20113;-86
2024/02/10 03:17:08;;;;;;;5.63;2.25;;;11.30;99.90;;;;;;5017564;28;20053;-84
2024/02/10 03:19:37;;;;;;;8.57;2.33;;;11.30;99.90;;;;;;5017996;28;20033;-86
2024/02/10 03:22:06;;;;;;;6.78;2.55;;;11.30;99.90;;;;;;5017677;28;20060;-87
2024/02/10 03:24:32;;;;;;;6.55;2.38;;;11.30;99.90;;;;;;5016621;28;20120;-87
2024/02/10 03:26:58;;;;;;;4.88;2.10;;;11.30;99.90;;;;;;5018005;28;20038;-86
2024/02/10 03:29:24;;;;;;;6.97;2.05;;;11.20;99.90;;;;;;5017438;28;20080;-87
2024/02/10 03:31:49;;;;;;;5.78;1.70;;;11.30;99.90;;;;;;5016346;28;20072;-87
2024/02/10 03:34:15;;;;;;;6.82;2.50;;;11.20;99.90;;;;;;5016798;28;20034;-86
2024/02/10 03:36:41;;;;;;;5.07;2.42;;;11.20;99.90;;;;;;5017286;28;20052;-87
2024/02/10 03:39:07;;;;;;;5.13;1.92;;;11.20;99.90;;;;;;5016851;28;20109;-87
2024/02/10 03:41:33;;;;;;;5.28;2.25;;;11.20;99.90;;;;;;5016205;28;20390;-87
2024/02/10 03:44:01;;;;;;;7.30;2.95;;;11.20;99.90;;;;;;5017871;28;20022;-86
2024/02/10 03:46:30;;;;;;;5.63;1.80;;;11.20;99.90;;;;;;5017335;28;20046;-86
2024/02/10 03:48:58;;;;;;;7.07;2.20;;;11.20;99.90;;;;;;5016950;28;20054;-86
2024/02/10 03:51:26;;;;;;;4.55;2.10;;;11.10;99.90;;;;;;5017218;28;20249;-86
2024/02/10 03:53:52;;;;;;;4.30;2.13;;;11.20;99.90;;;;;;5015869;28;20037;-86
2024/02/10 03:56:17;;;;;;;5.60;2.50;;;11.10;99.90;;;;;;5016945;28;20029;-86
2024/02/10 03:58:43;;;;;;;5.43;2.30;;;11.10;99.90;;;;;;5015924;28;20116;-85
2024/02/10 04:01:13;;;;;;;7.10;2.55;;;11.10;99.90;;;;;;5015764;28;20032;-86
2024/02/10 04:03:45;;;;;;;4.53;2.03;;;11.10;99.90;;;;;;5016587;28;20014;-87
2024/02/10 04:06:15;;;;;;;6.75;2.55;;;11.10;99.90;;;;;;5016200;28;20494;-86
2024/02/10 04:08:45;;;;;;;4.93;2.63;;;11.10;99.90;;;;;;5016987;28;20104;-87
2024/02/10 04:11:14;;;;;;;6.50;2.55;;;11.10;99.90;;;;;;5016324;28;20022;-87
2024/02/10 04:13:43;;;;;;;5.78;2.30;;;11.00;99.90;;;;;;5015176;28;20024;-86
2024/02/10 04:16:11;;;;;;;5.22;2.30;;;11.00;99.90;;;;;;5016923;28;20046;-86
2024/02/10 04:18:37;;;;;;;5.70;2.28;;;11.00;99.90;;;;;;5015422;28;20060;-87
2024/02/10 04:21:04;;;;;;;4.75;2.22;;;11.00;99.90;;;;;;5016314;28;20050;-86
2024/02/10 04:23:33;;;;;;;6.07;2.35;;;11.00;99.90;;;;;;5015217;28;20045;-86
2024/02/10 04:26:04;;;;;;;5.43;2.38;;;11.00;99.90;;;;;;5015292;28;20026;-86
2024/02/10 04:28:30;;;;;;;5.15;1.90;;;11.00;99.90;;;;;;5015594;28;20030;-87
2024/02/10 04:30:56;;;;;;;5.75;1.90;;;11.00;99.90;;;;;;5015825;28;20546;-86
2024/02/10 04:33:22;;;;;;;7.18;2.45;;;11.00;99.90;;;;;;5014508;28;20501;-86
2024/02/10 04:35:48;;;;;;;6.57;1.98;;;11.10;99.90;;;;;;5015435;28;20033;-86
2024/02/10 04:38:14;;;;;;;6.78;2.47;;;11.10;99.90;;;;;;5015987;28;20025;-86
2024/02/10 04:40:40;;;;;;;7.18;2.72;;;11.10;99.90;;;;;;5014461;28;20501;-86
2024/02/10 04:43:06;;;;;;;6.53;2.30;;;11.10;99.90;;;;;;5015410;28;20107;-86
2024/02/10 04:45:35;;;;;;;5.78;2.97;;;11.10;99.90;;;;;;5015313;28;20018;-86
2024/02/10 04:48:08;;;;;;;4.75;1.98;;;11.10;99.90;;;;;;5013750;28;20018;-86
2024/02/10 04:50:34;;;;;;;4.43;2.05;;;11.10;99.90;;;;;;5015367;28;20029;-86
2024/02/10 04:53:00;;;;;;;4.65;2.28;;;11.10;99.90;;;;;;5015140;28;20172;-86
2024/02/10 04:55:26;;;;;;;5.68;2.75;;;11.10;99.90;;;;;;5013885;28;20386;-86
2024/02/10 04:57:53;;;;;;;7.15;2.40;;;11.10;99.90;;;;;;5014014;28;20022;-86
2024/02/10 05:00:21;;;;;;;4.85;2.00;;;11.10;99.90;;;;;;5015047;28;20528;-87
2024/02/10 05:02:51;;;;;;;4.90;2.20;;;11.10;99.90;;;;;;5013646;28;20037;-86
2024/02/10 05:05:20;;;;;;;7.18;1.90;;;11.10;99.90;;;;;;5013566;28;20045;-86
2024/02/10 05:07:55;;;;;;;6.10;1.98;;;11.10;99.90;;;;;;5015327;28;20018;-87
2024/02/10 05:10:21;;;;;;;5.20;2.20;;;11.10;99.90;;;;;;5015220;28;20022;-85
2024/02/10 05:12:48;;;;;;;5.53;2.10;;;11.10;99.90;;;;;;5015472;28;20056;-87
2024/02/10 05:15:22;;;;;;;5.80;2.65;;;11.10;99.90;;;;;;5014904;28;20478;-86
2024/02/10 05:17:50;;;;;;;5.50;2.42;;;11.10;99.90;;;;;;5021117;28;20110;-85
2024/02/10 05:20:19;;;;;;;6.53;2.38;;;11.10;99.90;;;;;;5026142;28;20014;-86
2024/02/10 05:22:49;;;;;;;6.32;2.38;;;11.10;99.90;;;;;;5026927;28;20026;-85
2024/02/10 05:25:16;;;;;;;4.30;1.85;;;11.00;99.90;;;;;;5026011;28;20018;-86
2024/02/10 05:27:45;;;;;;;6.40;2.50;;;11.10;99.90;;;;;;5022084;28;20033;-86
2024/02/10 05:30:19;;;;;;;6.32;2.47;;;11.00;99.90;;;;;;5016304;28;20108;-86
2024/02/10 05:32:45;;;;;;;5.78;2.60;;;11.10;99.90;;;;;;5016271;28;20070;-86
2024/02/10 05:35:15;;;;;;;4.82;2.28;;;11.00;99.90;;;;;;5014686;28;20041;-86
2024/02/10 05:37:40;;;;;;;6.75;2.85;;;11.00;99.90;;;;;;5014680;28;20026;-86
2024/02/10 05:40:08;;;;;;;6.20;2.75;;;11.00;99.90;;;;;;5014619;28;20030;-86
2024/02/10 05:42:35;;;;;;;7.32;2.47;;;11.00;99.90;;;;;;5014403;28;20033;-86
2024/02/10 05:45:06;;;;;;;9.48;2.60;;;11.00;99.90;;;;;;5015131;28;20120;-87
2024/02/10 05:47:34;;;;;;;5.05;2.53;;;11.00;99.90;;;;;;5014028;28;20041;-86
2024/02/10 05:50:15;;;;;;;4.95;2.58;;;11.00;99.90;;;;;;5014535;28;20486;-86
2024/02/10 05:52:42;;;;;;;7.40;2.42;;;11.00;99.90;;;;;;5014819;28;20026;-86
2024/02/10 05:55:25;;;;;;;6.40;2.35;;;11.00;99.90;;;;;;5015009;28;20037;-87
2024/02/10 05:57:55;;;;;;;5.43;2.60;;;11.00;99.90;;;;;;5014420;28;20018;-86
2024/02/10 06:00:22;;;;;;;5.68;2.65;;;11.00;99.90;;;;;;5012584;28;20042;-86
2024/02/10 06:02:48;;;;;;;4.63;2.58;;;11.00;99.90;;;;;;5021517;28;20052;-85
2024/02/10 06:05:15;;;;;;;4.93;2.53;;;11.00;99.90;;;;;;5014807;28;20028;-86
2024/02/10 06:07:45;;;;;;;6.28;2.38;;;11.00;99.90;;;;;;5013971;28;20033;-86
2024/02/10 06:10:13;;;;;;;4.80;2.10;;;11.00;99.90;;;;;;5012204;28;20097;-86
2024/02/10 06:12:45;;;;;;;5.70;2.53;;;11.00;99.90;;;;;;5024323;28;20049;-86
2024/02/10 06:15:12;;;;;;;7.05;2.25;;;11.00;99.90;;;;;;5024529;28;20132;-86
2024/02/10 06:17:45;;;;;;;4.55;2.40;;;11.00;99.90;;;;;;5033464;28;20033;-87
2024/02/10 06:20:14;;;;;;;4.15;2.35;;;11.00;99.90;;;;;;5034132;28;20484;-86
2024/02/10 06:22:41;;;;;;;5.97;2.85;;;11.00;99.90;;;;;;5033312;28;20025;-86
2024/02/10 06:25:11;;;;;;;8.65;2.97;;;11.00;99.90;;;;;;5033755;28;20018;-86
2024/02/10 06:27:38;;;;;;;5.43;2.47;;;11.00;99.90;;;;;;5033936;28;20018;-86
2024/02/10 06:30:04;;;;;;;7.18;3.60;;;11.00;99.90;;;;;;5029567;28;20026;-86
2024/02/10 06:32:34;;;;;;;5.82;2.42;;;11.00;99.90;;;;;;5025394;28;20026;-85
2024/02/10 06:35:00;;;;;;;4.80;2.60;;;11.00;99.90;;;;;;5036792;28;20160;-86
2024/02/10 06:37:26;;;;;;;7.13;2.72;;;11.00;99.90;;;;;;5036467;28;20184;-85
2024/02/10 06:39:51;;;;;;;5.00;2.60;;;11.10;99.90;;;;;;5036301;28;20487;-85
2024/02/10 06:42:17;;;;;;;5.53;2.08;;;11.00;99.90;;;;;;5037554;28;20018;-86
2024/02/10 06:44:43;;;;;;;6.40;2.60;;;11.10;99.90;;;;;;5036389;28;20492;-86
2024/02/10 06:47:09;;;;;;;5.97;2.30;;;11.00;99.90;;;;;;5036489;28;20358;-87
2024/02/10 06:49:36;;;;;;;7.78;2.90;;;11.00;99.90;;;;;;5037225;28;20100;-86
2024/02/10 06:52:07;;;;;;;7.05;2.75;;;11.00;99.90;;;;;;5037597;28;20080;-86
2024/02/10 06:54:32;;;;;;;6.00;2.30;;;11.10;99.90;;;;;;5036918;28;20112;-86
2024/02/10 06:56:59;;;;;;;7.25;2.92;;;11.00;99.90;;;;;;5037372;28;20060;-85
2024/02/10 06:59:26;;;;;;;6.72;2.90;;;11.00;99.90;;;;;;5034069;28;20412;-86
2024/02/10 07:01:54;;;;;;;6.35;2.97;;;11.00;99.90;;;;;;5016178;28;20030;-86
2024/02/10 07:04:23;;;;;;;6.65;2.92;;;11.00;99.90;;;;;;5016824;28;20010;-88
2024/02/10 07:06:57;;;;;;;6.38;3.38;;;11.00;99.90;;;;;;5017362;28;20482;-86
2024/02/10 07:09:23;;;;;;;6.55;3.50;;;11.00;99.90;;;;;;5021635;28;20021;-86
2024/02/10 07:11:50;;;;;;;4.70;2.80;;;10.90;99.90;;;;;;5036845;28;20017;-86
2024/02/10 07:14:19;;;;;;;6.95;3.25;;;11.00;99.90;;;;;;5030086;28;20014;-86
2024/02/10 07:16:46;;;;;;;6.63;3.60;;;10.90;99.90;;;;;;5025540;28;20079;-87
2024/02/10 07:19:12;;;;;;;6.53;3.08;;;10.90;99.90;;;;;;5027429;28;20018;-87
2024/02/10 07:21:39;;;;;;;6.05;2.97;;;10.90;99.90;;;;;;5027567;28;20029;-86
2024/02/10 07:24:09;;;;;;;5.90;3.35;;;10.90;99.90;;;;;;5026993;28;20018;-87
2024/02/10 07:26:35;;;;;;;6.55;3.88;;;10.90;99.90;;;;;;5027638;28;20014;-87
2024/02/10 07:29:01;;;;;;;6.47;3.55;;;10.90;99.90;;;;;;5025316;28;20375;-86
2024/02/10 07:31:27;;;;;;;6.43;3.50;;;10.90;99.90;;;;;;5025355;28;20014;-87
2024/02/10 07:33:58;;;;;;;7.60;3.97;;;11.00;99.90;;;;;;5027156;28;20027;-86
2024/02/10 07:36:34;;;;;;;8.25;3.88;;;10.90;99.90;;;;;;5025540;28;20072;-87
2024/02/10 07:39:01;;;;;;;7.55;3.75;;;10.90;99.90;;;;;;5035908;28;20025;-86
2024/02/10 07:41:27;;;;;;;6.63;3.72;;;10.90;99.90;;;;;;5029415;28;20029;-87
2024/02/10 07:43:53;;;;;;;10.57;3.65;;;10.90;99.90;;;;;;5025089;28;20389;-86
2024/02/10 07:46:18;;;;;;;7.78;3.80;;;10.90;99.90;;;;;;5026283;28;20474;-87
2024/02/10 07:48:45;;;;;;;6.07;3.55;;;10.90;99.90;;;;;;5023277;28;20029;-87
2024/02/10 07:51:12;;;;;;;7.22;3.78;;;10.90;99.90;;;;;;5025657;28;20147;-86
2024/02/10 07:53:38;;;;;;;7.53;3.78;;;11.00;99.90;;;;;;5016463;28;20060;-86
2024/02/10 07:56:04;;;;;;;5.97;3.30;;;11.00;99.90;;;;;;5016787;28;20022;-86
2024/02/10 07:58:29;;;;;;;7.30;3.92;;;11.00;99.90;;;;;;5016279;28;20025;-86
2024/02/10 08:00:55;;;;;;;6.95;3.70;;;11.00;99.90;;;;;;5017588;28;20049;-84
2024/02/10 08:03:22;;;;;;;6.85;3.55;;;11.10;99.90;;;;;;5016598;28;20109;-85
2024/02/10 08:05:51;;;;;;;8.60;3.55;;;11.10;99.90;;;;;;5014724;28;20109;-86
2024/02/10 08:08:21;;;;;;;7.13;3.65;;;11.10;99.90;;;;;;5024279;28;20033;-85
2024/02/10 08:10:47;;;;;;;7.32;4.18;;;11.10;99.90;;;;;;5034523;28;20025;-86
2024/02/10 08:13:12;;;;;;;11.90;4.35;;;11.10;99.90;;;;;;5035833;28;20044;-86
2024/02/10 08:15:39;;;;;;;7.72;4.13;;;11.20;99.90;;;;;;5035719;28;20041;-85
2024/02/10 08:18:08;;;;;;;7.40;3.70;;;11.20;99.90;;;;;;5034569;28;20150;-84
2024/02/10 08:20:34;;;;;;;6.90;3.60;;;11.20;99.90;;;;;;5036698;28;20501;-86
2024/02/10 08:23:00;;;;;;;7.57;4.22;;;11.30;99.90;;;;;;5036724;28;20041;-86
2024/02/10 08:25:28;;;;;;;9.55;3.60;;;11.30;99.90;;;;;;5036601;28;20034;-85
2024/02/10 08:27:56;;;;;;;6.60;2.97;;;11.30;99.90;;;;;;5020989;28;20045;-85
2024/02/10 08:30:22;;;;;;;9.65;3.80;;;11.30;99.90;;;;;;5014323;28;20087;-85
2024/02/10 08:32:48;;;;;;;7.10;3.80;;;11.30;99.90;;;;;;5016041;28;20030;-86
2024/02/10 08:35:17;;;;;;;5.65;3.13;;;11.40;99.90;;;;;;5015816;28;20022;-86
2024/02/10 08:37:43;;;;;;;5.22;3.10;;;11.40;99.90;;;;;;5013999;28;20505;-85
2024/02/10 08:40:09;;;;;;;8.65;3.33;;;11.40;99.90;;;;;;5015757;28;20101;-87
2024/02/10 08:42:35;;;;;;;8.68;3.78;;;11.40;99.90;;;;;;5015371;28;20022;-86
2024/02/10 08:45:05;;;;;;;7.32;3.58;;;11.40;99.90;;;;;;5015457;28;20101;-86
2024/02/10 08:47:31;;;;;;;5.18;3.20;;;11.50;99.90;;;;;;5014992;28;20014;-85
2024/02/10 08:49:56;;;;;;;6.78;3.22;;;11.50;99.90;;;;;;5015134;28;20382;-85
2024/02/10 08:52:22;;;;;;;7.18;3.42;;;11.50;99.90;;;;;;5015639;28;20022;-87
2024/02/10 08:54:48;;;;;;;9.20;3.20;;;11.60;99.90;;;;;;5020085;28;20037;-90
2024/02/10 08:57:15;;;;;;;7.57;3.15;;;11.50;99.90;;;;;;5031551;28;20033;-90
2024/02/10 08:59:45;;;;;;;5.40;2.92;;;11.60;99.90;;;;;;5042494;28;20048;-90
2024/02/10 09:02:11;;;;;;;4.72;2.25;;;11.60;99.90;;;;;;5041449;28;20025;-90
2024/02/10 09:04:40;;;;;;;5.20;3.05;;;11.70;99.90;;;;;;5028025;28;20041;-91
2024/02/10 09:07:07;;;;;;;5.38;2.75;;;11.80;99.90;;;;;;5032618;28;20031;-91
2024/02/10 09:09:33;;;;;;;8.57;3.17;;;11.80;99.90;;;;;;5019705;28;20018;-90
2024/02/10 09:11:59;;;;;;;5.32;2.90;;;11.80;99.90;;;;;;5016103;28;20036;-91
2024/02/10 09:14:25;;;;;;;4.72;2.58;;;11.90;99.90;;;;;;5016018;28;20116;-91
2024/02/10 09:16:51;;;;;;;6.30;3.10;;;11.90;99.90;;;;;;5015704;28;20033;-90
2024/02/10 09:19:25;;;;;;;7.47;2.63;;;11.90;99.90;;;;;;5078560;27;1416340;-90
2024/02/10 09:21:54;;;;;;;4.45;2.60;;;12.00;99.90;;;;;;5110254;28;20040;-90
2024/02/10 09:26:49;;;;;;;7.25;2.50;;;12.10;99.90;;;;;;5032569;28;20056;-92
2024/02/10 09:29:14;;;;;;;4.35;2.20;;;12.10;99.90;;;;;;5034706;28;20044;-91
2024/02/10 09:31:44;;;;;;;5.38;2.10;;;12.10;99.90;;;;;;5031258;28;20394;-91
2024/02/10 09:34:12;;;;;;;5.45;2.50;;;12.20;99.90;;;;;;5031491;28;20030;-91
2024/02/10 09:36:47;;;;;;;4.10;2.00;;;12.20;99.90;;;;;;5031201;28;20029;-91
2024/02/10 09:39:13;;;;;;;5.75;2.25;;;12.30;99.90;;;;;;5031950;28;20115;-91
2024/02/10 09:41:39;;;;;;;5.00;2.17;;;12.40;99.90;;;;;;5032439;28;20026;-91
2024/02/10 09:44:12;;;;;;;5.00;2.33;;;12.40;99.90;;;;;;5031000;28;20227;-90
2024/02/10 09:46:38;;;;;;;8.75;2.20;;;12.50;99.90;;;;;;5030260;28;20026;-90
2024/02/10 09:49:07;;;;;;;6.05;1.80;;;12.50;99.90;;;;;;5031435;28;20104;-91
2024/02/10 09:51:40;;;;;;;4.97;2.63;;;12.50;99.90;;;;;;5030644;28;20077;-90
2024/02/10 09:54:06;;;;;;;5.10;2.08;;;12.50;99.90;;;;;;5031039;28;20032;-91
2024/02/10 09:56:33;;;;;;;6.28;2.85;;;12.60;99.90;;;;;;5031337;28;20397;-92
2024/02/10 09:58:59;;;;;;;5.03;2.28;;;12.60;99.90;;;;;;5030764;28;20036;-91
2024/02/10 10:01:32;;;;;;;5.28;1.95;;;12.60;99.90;;;;;;5035352;28;20113;-90
2024/02/10 10:03:59;;;;;;;4.90;2.53;;;12.70;99.90;;;;;;5030476;28;20477;-91
2024/02/10 10:06:26;;;;;;;5.07;2.05;;;12.70;99.90;;;;;;5030232;28;20057;-91
2024/02/10 10:08:53;;;;;;;4.65;1.63;;;12.80;99.90;;;;;;5031730;28;20028;-91
2024/02/10 10:11:20;;;;;;;4.45;1.73;;;12.80;99.90;;;;;;5031510;28;20390;-91
2024/02/10 10:13:46;;;;;;;6.47;2.00;;;12.90;99.90;;;;;;5031694;28;20494;-92
2024/02/10 10:16:12;;;;;;;7.18;2.17;;;12.90;99.90;;;;;;5031541;28;20233;-91
2024/02/10 10:18:38;;;;;;;4.10;1.95;;;13.00;99.90;;;;;;5030117;28;20113;-86
2024/02/10 10:21:04;;;;;;;3.70;1.70;;;13.00;99.90;;;;;;5028879;28;20040;-86
2024/02/10 10:23:31;;;;;;;4.85;2.00;;;13.10;99.90;;;;;;5028106;28;20022;-85
2024/02/10 10:25:57;;;;;;;6.18;2.35;;;13.20;99.90;;;;;;5029240;28;20478;-86
2024/02/10 10:28:23;;;;;;;2.60;1.35;;;13.20;99.90;;;;;;5028384;28;20076;-85
2024/02/10 10:30:49;;;;;;;4.20;1.60;;;13.30;99.90;;;;;;5014446;28;20026;-86
2024/02/10 10:33:20;;;;;;;5.82;1.45;;;13.30;99.90;;;;;;5013929;28;20045;-84
2024/02/10 10:35:47;;;;;;;6.03;1.90;;;13.40;99.90;;;;;;5012521;28;20072;-86
2024/02/10 10:38:14;;;;;;;3.35;1.50;;;13.40;99.90;;;;;;5014651;28;20041;-86
2024/02/10 10:40:44;;;;;;;4.38;1.63;;;13.40;99.90;;;;;;5014825;28;20063;-87
2024/02/10 10:43:10;;;;;;;3.22;1.52;;;13.50;99.90;;;;;;5014842;28;20080;-86
2024/02/10 10:45:39;;;;;;;4.32;1.70;;;13.50;99.90;;;;;;5015486;28;20026;-86
2024/02/10 10:48:08;;;;;;;4.97;1.50;;;13.50;99.90;;;;;;5014243;28;20060;-86
2024/02/10 10:50:34;;;;;;;3.38;1.35;;;13.60;99.90;;;;;;5016336;28;20069;-90
2024/02/10 10:53:06;;;;;;;4.35;1.60;;;13.60;99.90;;;;;;5015834;28;20090;-85
2024/02/10 10:55:35;;;;;;;5.43;1.85;;;13.70;99.90;;;;;;5014453;28;20014;-83
2024/02/10 10:58:04;;;;;;;2.85;1.33;;;13.60;99.90;;;;;;5014558;28;20026;-85
2024/02/10 11:00:35;;;;;;;3.92;1.50;;;13.70;99.90;;;;;;5014533;28;20025;-86
2024/02/10 11:03:02;;;;;;;3.47;1.38;;;13.80;99.90;;;;;;5015411;28;20494;-85
2024/02/10 11:05:34;;;;;;;3.80;1.23;;;13.80;99.90;;;;;;5015234;28;20022;-85
2024/02/10 11:08:01;;;;;;;3.63;1.55;;;13.80;99.90;;;;;;5011238;28;20109;-84
2024/02/10 11:10:48;;;;;;;5.07;1.45;;;13.80;99.90;;;;;;5013360;28;20025;-86
2024/02/10 11:13:22;;;;;;;3.17;1.55;;;13.80;99.90;;;;;;5013487;28;20404;-89
2024/02/10 11:16:14;;;;;;;5.35;1.92;;;13.90;99.90;;;;;;5013423;28;20014;-84
2024/02/10 11:18:44;;;;;;;3.38;1.67;;;13.90;99.90;;;;;;5015222;28;20026;-84
2024/02/10 11:21:15;;;;;;;3.33;1.73;;;14.00;99.90;;;;;;5013707;28;20022;-86
2024/02/10 11:23:41;;;;;;;4.30;2.13;;;14.00;99.90;;;;;;5013724;28;20030;-85
2024/02/10 11:26:09;;;;;;;4.57;1.70;;;14.10;99.90;;;;;;5012881;28;20049;-84
2024/02/10 11:28:37;;;;;;;5.65;1.55;;;14.00;99.90;;;;;;5013607;28;20029;-85
2024/02/10 11:31:10;;;;;;;5.20;2.20;;;14.00;99.90;;;;;;5014377;28;20026;-86
2024/02/10 11:33:38;;;;;;;4.82;1.83;;;14.00;99.90;;;;;;5014947;28;20026;-86
2024/02/10 11:36:08;;;;;;;3.67;1.73;;;14.00;99.90;;;;;;5014235;28;20394;-86
2024/02/10 11:38:35;;;;;;;3.15;1.40;;;14.00;99.90;;;;;;5013867;28;20036;-85
2024/02/10 11:41:02;;;;;;;6.47;1.70;;;14.00;99.90;;;;;;5014242;28;20479;-88
2024/02/10 11:43:27;;;;;;;3.88;1.42;;;14.10;99.90;;;;;;5013836;28;20033;-86
2024/02/10 11:45:53;;;;;;;3.50;1.52;;;14.00;99.90;;;;;;5014759;28;20030;-84
2024/02/10 11:48:19;;;;;;;5.90;1.85;;;14.00;99.90;;;;;;5013147;28;20103;-86
2024/02/10 11:50:45;;;;;;;4.25;1.40;;;14.10;99.90;;;;;;5013359;28;20017;-86
2024/02/10 11:53:15;;;;;;;5.35;1.73;;;14.10;99.90;;;;;;5012995;28;20030;-86
2024/02/10 11:55:43;;;;;;;3.00;0.98;;;14.10;99.90;;;;;;5008027;28;20522;-86
2024/02/10 11:58:16;;;;;;;5.15;1.67;;;14.20;99.90;;;;;;5013517;28;20037;-85
2024/02/10 12:00:43;;;;;;;3.85;1.65;;;14.30;99.90;;;;;;5012994;28;20103;-84
2024/02/10 12:03:20;;;;;;;5.40;1.60;;;14.30;99.90;;;;;;5013152;28;20093;-85
2024/02/10 12:05:46;;;;;;;5.43;1.52;;;14.40;99.90;;;;;;5013145;28;20022;-86
2024/02/10 12:08:12;;;;;;;3.63;1.27;;;14.50;99.90;;;;;;5014042;28;20057;-86
2024/02/10 12:10:39;;;;;;;3.75;1.42;;;14.60;99.90;;;;;;5013002;28;20018;-86
2024/02/10 12:13:11;;;;;;;3.95;1.45;;;14.70;99.90;;;;;;5013947;28;20026;-85
2024/02/10 12:15:40;;;;;;;3.05;1.27;;;14.90;99.90;;;;;;5012732;28;20029;-84
2024/02/10 12:18:09;;;;;;;3.67;1.85;;;15.00;99.90;;;;;;5013805;28;20044;-90
2024/02/10 12:20:37;;;;;;;2.90;1.08;;;15.10;99.90;;;;;;5014363;28;20017;-90
2024/02/10 12:23:03;;;;;;;4.28;1.40;;;15.20;99.90;;;;;;5014439;28;20060;-90
2024/02/10 12:25:29;;;;;;;4.93;1.52;;;15.40;99.90;;;;;;5013946;28;20046;-89
2024/02/10 12:27:57;;;;;;;2.60;1.15;;;15.50;99.90;;;;;;5014727;28;20042;-90
2024/02/10 12:30:22;;;;;;;4.13;1.13;;;15.50;99.90;;;;;;5015472;28;20498;-91
2024/02/10 12:32:51;;;;;;;2.30;1.30;;;15.60;99.90;;;;;;5016977;28;20025;-90
2024/02/10 12:35:17;;;;;;;5.43;1.40;;;15.60;99.90;;;;;;5017906;28;20084;-91
2024/02/10 12:37:46;;;;;;;3.80;1.10;;;15.80;99.90;;;;;;5023822;28;20116;-90
2024/02/10 12:40:13;;;;;;;3.78;1.50;;;15.80;99.60;;;;;;5023253;28;20022;-90
2024/02/10 12:42:42;;;;;;;5.82;1.10;;;15.90;99.20;;;;;;5024694;28;20036;-90
2024/02/10 12:45:09;;;;;;;2.83;0.95;;;16.00;99.10;;;;;;5019967;28;20018;-91
2024/02/10 12:47:37;;;;;;;3.92;1.30;;;16.10;99.00;;;;;;5014814;28;20029;-90
2024/02/10 12:50:07;;;;;;;3.53;1.08;;;16.20;98.60;;;;;;5012494;28;20470;-91